Current Conditions
Mostly Cloudy
Conditions



Pressure
1010.92 (hPa) - 29.85 (inHG)
Visibility

10.0 (km) - 6.2 (miles)
   Temperature
7  °C
45°F
4  °C
Dewpoint
81  %
 Humidity
   Wind Speed
26  km/h
14  kts
16  mph
7.2  m/s
   Wind Direction
 270°
Due West
   Airport Data
YMEN
Location Melbourne Essendon 7 km (4.35 mi)
Metar :YMEN 181500Z AUTO 27014KT 9999 // BKN031 BKN037 OVC081 07/04 Q1011
Mon 19th August 01:00 am
   Raw Metar Info
Raw METAR is the most common format in the world for the transmission of observational weather data. It is highly standardized through the International Civil Aviation Organization (ICAO), which allows it to be understood throughout most of the world.
   API Info
Data Provided by
https://www.checkwx.com/weather/YMEN
   © Info
CSS/SVG/PHP scripts were developed by weather34.com for use in the weather34 template © 2015-2019

Guide Info provided by Metar-Wikipedia